createdAt,value
2019-03-25T00:02:23.465Z,9.60
2019-03-25T00:04:51.869Z,9.50
2019-03-25T00:07:39.584Z,9.40
2019-03-25T00:10:08.215Z,9.40
2019-03-25T00:12:36.593Z,9.30
2019-03-25T00:15:06.330Z,9.20
2019-03-25T00:17:34.709Z,9.20
2019-03-25T00:20:03.167Z,9.10
2019-03-25T00:22:31.542Z,9.00
2019-03-25T00:24:59.919Z,8.90
2019-03-25T00:27:28.295Z,8.90
2019-03-25T00:29:56.704Z,8.80
2019-03-25T00:32:25.092Z,8.80
2019-03-25T00:34:53.551Z,8.70
2019-03-25T00:37:21.923Z,8.70
2019-03-25T00:39:50.317Z,8.70
2019-03-25T00:42:18.697Z,8.70
2019-03-25T00:44:47.103Z,8.60
2019-03-25T00:47:15.482Z,8.60
2019-03-25T00:49:43.881Z,8.50
2019-03-25T00:52:12.258Z,8.50
2019-03-25T00:54:49.631Z,8.30
2019-03-25T00:57:10.752Z,8.30
2019-03-25T00:59:39.149Z,8.20
2019-03-25T01:02:07.530Z,8.10
2019-03-25T01:04:35.913Z,8.10
2019-03-25T01:07:04.348Z,8.00
2019-03-25T01:09:32.771Z,8.00
2019-03-25T01:12:01.145Z,7.90
2019-03-25T01:14:29.524Z,7.90
2019-03-25T01:16:57.921Z,7.80
2019-03-25T01:19:26.305Z,7.70
2019-03-25T01:21:54.697Z,7.70
2019-03-25T01:24:23.076Z,7.60
2019-03-25T01:26:51.468Z,7.50
2019-03-25T01:29:19.852Z,7.50
2019-03-25T01:31:48.494Z,7.40
2019-03-25T01:34:16.920Z,7.30
2019-03-25T01:36:45.307Z,7.20
2019-03-25T01:39:13.692Z,7.20
2019-03-25T01:41:42.090Z,7.10
2019-03-25T01:44:10.472Z,7.10
2019-03-25T01:46:38.860Z,7.00
2019-03-25T01:49:07.236Z,7.00
2019-03-25T01:51:35.632Z,6.90
2019-03-25T01:54:04.013Z,6.80
2019-03-25T01:56:32.401Z,6.80
2019-03-25T01:59:00.780Z,6.80
2019-03-25T02:01:29.170Z,6.70
2019-03-25T02:03:57.548Z,6.70
2019-03-25T02:06:25.944Z,6.70
2019-03-25T02:08:54.322Z,6.70
2019-03-25T02:11:22.716Z,6.60
2019-03-25T02:13:51.089Z,6.60
2019-03-25T02:16:19.487Z,6.60
2019-03-25T02:18:47.856Z,6.50
2019-03-25T02:21:16.248Z,6.50
2019-03-25T02:23:44.625Z,6.50
2019-03-25T02:26:13.018Z,6.50
2019-03-25T02:28:41.401Z,6.40
2019-03-25T02:31:09.796Z,6.40
2019-03-25T02:33:38.168Z,6.40
2019-03-25T02:36:06.570Z,6.40
2019-03-25T02:38:35.272Z,6.40
2019-03-25T02:41:03.744Z,6.30
2019-03-25T02:43:32.114Z,6.30
2019-03-25T02:46:00.506Z,6.20
2019-03-25T02:48:28.887Z,6.20
2019-03-25T02:50:57.277Z,6.20
2019-03-25T02:53:25.655Z,6.20
2019-03-25T02:55:54.046Z,6.10
2019-03-25T02:58:22.438Z,6.10
2019-03-25T03:00:50.825Z,6.00
2019-03-25T03:03:19.209Z,6.00
2019-03-25T03:05:47.608Z,5.90
2019-03-25T03:08:15.986Z,6.00
2019-03-25T03:10:44.395Z,5.90
2019-03-25T03:13:12.776Z,5.90
2019-03-25T03:15:41.192Z,5.90
2019-03-25T03:18:09.573Z,5.80
2019-03-25T03:20:37.965Z,5.80
2019-03-25T03:23:06.509Z,5.80
2019-03-25T03:25:34.909Z,5.70
2019-03-25T03:28:03.378Z,5.70
2019-03-25T03:30:31.750Z,5.60
2019-03-25T03:33:00.130Z,5.50
2019-03-25T03:35:28.525Z,5.50
2019-03-25T03:37:56.896Z,5.40
2019-03-25T03:40:25.295Z,5.40
2019-03-25T03:42:53.665Z,5.40
2019-03-25T03:45:22.064Z,5.30
2019-03-25T03:47:50.438Z,5.30
2019-03-25T03:50:24.385Z,5.20
2019-03-25T03:52:53.365Z,5.20
2019-03-25T03:55:21.768Z,5.10
2019-03-25T03:57:51.127Z,5.10
2019-03-25T04:00:33.359Z,5.00
2019-03-25T04:03:01.765Z,5.00
2019-03-25T04:05:30.207Z,5.00
2019-03-25T04:07:58.756Z,5.00
2019-03-25T04:10:27.386Z,4.90
2019-03-25T04:12:56.057Z,4.90
2019-03-25T04:15:29.104Z,4.80
2019-03-25T04:17:58.516Z,4.90
2019-03-25T04:20:26.894Z,4.80
2019-03-25T04:22:55.288Z,4.80
2019-03-25T04:25:23.665Z,4.70
2019-03-25T04:27:52.058Z,4.60
2019-03-25T04:30:20.438Z,4.50
2019-03-25T04:32:48.851Z,4.50
2019-03-25T04:35:17.233Z,4.50
2019-03-25T04:37:45.613Z,4.40
2019-03-25T04:40:14.062Z,4.50
2019-03-25T04:42:42.454Z,4.40
2019-03-25T04:45:10.899Z,4.50
2019-03-25T04:47:39.305Z,4.30
2019-03-25T04:50:08.118Z,4.30
2019-03-25T04:52:36.513Z,4.20
2019-03-25T04:55:06.623Z,4.30
2019-03-25T04:57:35.014Z,4.20
2019-03-25T05:00:04.834Z,4.30
2019-03-25T05:02:33.212Z,4.20
2019-03-25T05:05:01.599Z,4.10
2019-03-25T05:07:30.244Z,4.10
2019-03-25T05:09:58.627Z,4.10
2019-03-25T05:12:27.012Z,4.00
2019-03-25T05:14:55.393Z,4.00
2019-03-25T05:17:23.790Z,3.90
2019-03-25T05:19:52.168Z,3.80
2019-03-25T05:22:20.831Z,3.80
2019-03-25T05:24:49.208Z,3.90
2019-03-25T05:27:17.596Z,3.80
2019-03-25T05:29:45.972Z,3.80
2019-03-25T05:32:14.370Z,3.90
2019-03-25T05:34:42.743Z,3.90
2019-03-25T05:37:11.132Z,3.90
2019-03-25T05:39:39.514Z,4.00
2019-03-25T05:42:07.901Z,4.00
2019-03-25T05:44:36.283Z,4.00
2019-03-25T05:47:04.669Z,4.10
2019-03-25T05:49:33.044Z,4.10
2019-03-25T05:52:01.436Z,4.10
2019-03-25T05:54:29.842Z,4.20
2019-03-25T05:57:02.745Z,4.20
2019-03-25T05:59:28.341Z,4.30
2019-03-25T06:01:56.752Z,4.40
2019-03-25T06:04:25.114Z,4.50
2019-03-25T06:06:53.507Z,4.70
2019-03-25T06:09:21.888Z,4.80
2019-03-25T06:11:51.122Z,5.00
2019-03-25T06:14:19.497Z,5.20
2019-03-25T06:16:47.897Z,5.40
2019-03-25T06:19:16.273Z,5.50
2019-03-25T06:21:44.669Z,5.70
2019-03-25T06:24:13.060Z,5.80
2019-03-25T06:26:41.466Z,5.90
2019-03-25T06:29:09.836Z,6.00
2019-03-25T06:31:38.223Z,6.10
2019-03-25T06:34:06.609Z,6.20
2019-03-25T06:36:35.049Z,6.20
2019-03-25T06:39:04.732Z,6.20
2019-03-25T06:41:33.174Z,6.30
2019-03-25T06:44:01.546Z,6.30
2019-03-25T06:46:29.933Z,6.40
2019-03-25T06:48:58.313Z,6.40
2019-03-25T06:51:26.710Z,6.40
2019-03-25T06:53:55.098Z,6.50
2019-03-25T06:56:23.790Z,6.50
2019-03-25T06:58:52.173Z,6.50
2019-03-25T07:01:20.566Z,6.50
2019-03-25T07:03:48.945Z,6.60
2019-03-25T07:06:17.342Z,6.60
2019-03-25T07:08:45.726Z,6.60
2019-03-25T07:11:14.104Z,6.60
2019-03-25T07:13:42.529Z,6.70
2019-03-25T07:16:10.915Z,6.70
2019-03-25T07:18:39.304Z,6.80
2019-03-25T07:21:08.927Z,6.80
2019-03-25T07:23:37.308Z,6.80
2019-03-25T07:26:05.707Z,6.90
2019-03-25T07:28:34.123Z,6.90
2019-03-25T07:31:02.492Z,6.90
2019-03-25T07:33:30.883Z,7.00
2019-03-25T07:35:59.276Z,7.00
2019-03-25T07:38:27.677Z,7.00
2019-03-25T07:40:56.072Z,7.00
2019-03-25T07:43:24.462Z,7.10
2019-03-25T07:45:52.845Z,7.10
2019-03-25T07:48:21.233Z,7.10
2019-03-25T07:50:49.620Z,7.10
2019-03-25T07:53:18.042Z,7.20
2019-03-25T07:55:46.429Z,7.30
2019-03-25T07:58:14.818Z,7.30
2019-03-25T08:00:43.210Z,7.40
2019-03-25T08:03:11.599Z,7.50
2019-03-25T08:05:39.975Z,7.60
2019-03-25T08:08:08.376Z,7.70
2019-03-25T08:10:37.155Z,7.70
2019-03-25T08:13:07.053Z,7.80
2019-03-25T08:15:35.563Z,7.90
2019-03-25T08:18:05.030Z,8.00
2019-03-25T08:20:33.412Z,8.10
2019-03-25T08:23:01.849Z,8.20
2019-03-25T08:25:30.304Z,8.50
2019-03-25T08:28:00.210Z,8.60
2019-03-25T08:30:28.869Z,8.70
2019-03-25T08:32:57.282Z,8.80
2019-03-25T08:35:25.657Z,8.90
2019-03-25T08:37:54.053Z,9.00
2019-03-25T08:40:22.433Z,9.10
2019-03-25T08:42:50.856Z,9.50
2019-03-25T08:45:19.309Z,9.80
2019-03-25T08:47:47.720Z,10.30
2019-03-25T08:50:16.403Z,10.40
2019-03-25T08:52:44.797Z,10.80
2019-03-25T08:55:13.176Z,11.10
2019-03-25T08:57:41.566Z,11.20
2019-03-25T09:00:11.101Z,11.60
2019-03-25T09:02:39.496Z,11.50
2019-03-25T09:05:08.313Z,11.60
2019-03-25T09:07:37.089Z,11.60
2019-03-25T09:10:09.263Z,11.60
2019-03-25T09:12:37.801Z,11.60
2019-03-25T09:15:11.836Z,11.40
2019-03-25T09:17:40.235Z,11.40
2019-03-25T09:20:09.418Z,11.30
2019-03-25T09:22:37.881Z,11.30
2019-03-25T09:25:10.072Z,11.20
2019-03-25T09:27:38.460Z,11.30
2019-03-25T09:30:08.566Z,11.30
2019-03-25T09:32:37.025Z,11.20
2019-03-25T09:35:07.169Z,11.30
2019-03-25T09:37:35.561Z,11.30
2019-03-25T09:40:08.733Z,11.50
2019-03-25T09:42:37.212Z,11.80
2019-03-25T09:45:08.077Z,12.20
2019-03-25T09:47:37.851Z,12.20
2019-03-25T09:50:07.515Z,12.10
2019-03-25T09:52:38.676Z,12.40
2019-03-25T09:55:08.057Z,12.00
2019-03-25T09:57:36.712Z,12.20
2019-03-25T10:00:10.752Z,12.50
2019-03-25T10:02:39.148Z,12.90
2019-03-25T10:05:08.472Z,13.10
2019-03-25T10:07:36.869Z,13.30
2019-03-25T10:10:09.139Z,13.30
2019-03-25T10:12:37.557Z,13.20
2019-03-25T10:15:07.886Z,13.40
2019-03-25T10:17:36.299Z,13.70
2019-03-25T10:20:07.899Z,13.80
2019-03-25T10:22:36.357Z,13.70
2019-03-25T10:25:06.797Z,13.80
2019-03-25T10:27:35.214Z,14.10
2019-03-25T10:30:05.294Z,14.60
2019-03-25T10:32:33.703Z,14.50
2019-03-25T10:35:02.132Z,14.40
2019-03-25T10:37:30.533Z,14.30
2019-03-25T10:39:58.911Z,14.70
2019-03-25T10:42:27.324Z,14.50
2019-03-25T10:44:55.787Z,14.40
2019-03-25T10:47:24.253Z,14.80
2019-03-25T10:49:52.640Z,15.00
2019-03-25T10:52:21.120Z,15.20
2019-03-25T10:54:49.629Z,15.50
2019-03-25T10:57:18.191Z,15.20
2019-03-25T10:59:46.585Z,15.50
2019-03-25T11:02:15.100Z,15.80
2019-03-25T11:04:43.499Z,16.10
2019-03-25T11:07:11.902Z,16.10
2019-03-25T11:09:40.355Z,16.00
2019-03-25T11:12:08.749Z,16.10
2019-03-25T11:14:37.136Z,16.00
2019-03-25T11:17:05.520Z,16.00
2019-03-25T11:19:33.917Z,15.70
2019-03-25T11:22:02.296Z,15.40
2019-03-25T11:24:30.702Z,15.40
2019-03-25T11:26:59.079Z,15.60
2019-03-25T11:29:27.505Z,15.50
2019-03-25T11:31:55.884Z,15.40
2019-03-25T11:34:24.282Z,15.70
2019-03-25T11:36:52.656Z,15.60
2019-03-25T11:39:21.051Z,15.40
2019-03-25T11:41:49.448Z,15.50
2019-03-25T11:44:18.108Z,15.90
2019-03-25T11:46:46.491Z,16.00
2019-03-25T11:49:14.888Z,16.20
2019-03-25T11:51:43.277Z,16.40
2019-03-25T11:54:11.672Z,16.60
2019-03-25T11:56:40.095Z,16.40
2019-03-25T11:59:18.131Z,16.40
2019-03-25T12:01:38.592Z,16.20
2019-03-25T12:04:06.989Z,16.10
2019-03-25T12:06:35.376Z,16.40
2019-03-25T12:09:05.324Z,16.40
2019-03-25T12:11:34.030Z,16.20
2019-03-25T12:14:02.483Z,16.10
2019-03-25T12:16:31.542Z,15.90
2019-03-25T12:18:59.961Z,15.80
2019-03-25T12:21:28.331Z,15.90
2019-03-25T12:23:56.717Z,16.00
2019-03-25T12:26:25.099Z,16.10
2019-03-25T12:28:53.488Z,15.80
2019-03-25T12:31:21.876Z,15.90
2019-03-25T12:33:50.382Z,16.10
2019-03-25T12:36:18.759Z,15.90
2019-03-25T12:38:47.240Z,15.80
2019-03-25T12:41:15.678Z,15.90
2019-03-25T12:43:44.072Z,16.10
2019-03-25T12:46:12.452Z,16.10
2019-03-25T12:48:40.839Z,16.00
2019-03-25T12:51:09.292Z,15.80
2019-03-25T12:53:37.679Z,15.50
2019-03-25T12:56:06.068Z,15.20
2019-03-25T12:58:34.467Z,15.00
2019-03-25T13:01:02.878Z,14.80
2019-03-25T13:03:31.253Z,14.40
2019-03-25T13:05:59.649Z,14.00
2019-03-25T13:08:33.150Z,13.80
2019-03-25T13:10:58.152Z,13.70
2019-03-25T13:13:26.550Z,13.60
2019-03-25T13:15:54.933Z,13.80
2019-03-25T13:18:23.327Z,13.90
2019-03-25T13:20:51.719Z,14.00
2019-03-25T13:23:20.093Z,14.30
2019-03-25T13:25:48.492Z,14.60
2019-03-25T13:28:16.876Z,14.70
2019-03-25T13:30:45.279Z,14.90
2019-03-25T13:33:13.659Z,15.20
2019-03-25T13:35:42.052Z,15.20
2019-03-25T13:38:10.439Z,14.90
2019-03-25T13:40:38.827Z,15.00
2019-03-25T13:43:07.212Z,14.80
2019-03-25T13:45:35.612Z,14.80
2019-03-25T13:48:03.995Z,14.70
2019-03-25T13:50:32.396Z,14.60
2019-03-25T13:53:00.858Z,14.70
2019-03-25T13:55:29.252Z,14.80
2019-03-25T13:57:57.644Z,14.70
2019-03-25T14:00:37.352Z,14.50
2019-03-25T14:03:05.800Z,14.60
2019-03-25T14:05:34.196Z,14.60
2019-03-25T14:08:02.582Z,14.60
2019-03-25T14:10:31.044Z,14.60
2019-03-25T14:12:59.424Z,14.60
2019-03-25T14:15:27.880Z,14.40
2019-03-25T14:17:56.266Z,14.60
2019-03-25T14:20:24.659Z,14.80
2019-03-25T14:22:53.036Z,14.50
2019-03-25T14:25:21.432Z,14.70
2019-03-25T14:27:49.828Z,14.50
2019-03-25T14:30:18.567Z,14.50
2019-03-25T14:32:46.953Z,14.50
2019-03-25T14:35:15.340Z,14.50
2019-03-25T14:37:43.724Z,14.30
2019-03-25T14:40:12.199Z,14.40
2019-03-25T14:42:40.577Z,14.30
2019-03-25T14:45:09.918Z,14.40
2019-03-25T14:47:38.298Z,14.20
2019-03-25T14:50:07.639Z,14.20
2019-03-25T14:52:36.024Z,14.20
2019-03-25T14:55:05.052Z,14.10
2019-03-25T14:57:33.441Z,14.00
2019-03-25T15:00:01.830Z,14.00
2019-03-25T15:02:30.213Z,13.90
2019-03-25T15:04:58.615Z,13.90
2019-03-25T15:07:26.997Z,13.90
2019-03-25T15:09:55.392Z,13.90
2019-03-25T15:12:23.840Z,13.80
2019-03-25T15:14:52.249Z,13.80
2019-03-25T15:17:20.634Z,13.90
2019-03-25T15:19:49.031Z,14.00
2019-03-25T15:22:17.412Z,14.10
2019-03-25T15:24:45.816Z,14.10
2019-03-25T15:27:14.338Z,14.00
2019-03-25T15:29:42.825Z,14.00
2019-03-25T15:32:11.212Z,14.10
2019-03-25T15:34:39.608Z,13.90
2019-03-25T15:37:07.993Z,14.00
2019-03-25T15:39:46.115Z,13.90
2019-03-25T15:42:06.492Z,13.90
2019-03-25T15:44:34.885Z,13.90
2019-03-25T15:47:03.283Z,14.00
2019-03-25T15:49:31.672Z,13.90
2019-03-25T15:52:00.060Z,13.80
2019-03-25T15:54:28.456Z,13.70
2019-03-25T15:56:56.841Z,13.50
2019-03-25T15:59:25.237Z,13.40
2019-03-25T16:01:53.621Z,13.40
2019-03-25T16:04:22.015Z,13.30
2019-03-25T16:06:50.395Z,13.20
2019-03-25T16:09:18.813Z,13.20
2019-03-25T16:11:47.195Z,13.00
2019-03-25T16:14:15.594Z,12.90
2019-03-25T16:16:43.967Z,12.80
2019-03-25T16:19:12.429Z,12.90
2019-03-25T16:21:40.819Z,12.90
2019-03-25T16:24:09.500Z,13.00
2019-03-25T16:26:37.912Z,13.00
2019-03-25T16:29:06.288Z,13.00
2019-03-25T16:31:34.689Z,12.90
2019-03-25T16:34:03.068Z,12.80
2019-03-25T16:36:31.467Z,12.80
2019-03-25T16:38:59.893Z,12.70
2019-03-25T16:41:28.316Z,12.60
2019-03-25T16:43:56.696Z,12.60
2019-03-25T16:46:25.079Z,12.40
2019-03-25T16:48:55.156Z,12.30
2019-03-25T16:51:23.937Z,12.30
2019-03-25T16:53:52.320Z,12.20
2019-03-25T16:56:20.717Z,12.30
2019-03-25T16:58:49.102Z,12.30
2019-03-25T17:01:17.767Z,12.20
2019-03-25T17:03:46.762Z,12.20
2019-03-25T17:06:15.149Z,12.10
2019-03-25T17:08:43.536Z,12.10
2019-03-25T17:11:11.996Z,12.10
2019-03-25T17:13:40.392Z,12.00
2019-03-25T17:16:08.785Z,12.00
2019-03-25T17:18:37.169Z,11.80
2019-03-25T17:21:05.562Z,11.80
2019-03-25T17:23:33.949Z,11.70
2019-03-25T17:26:02.344Z,11.40
2019-03-25T17:28:30.730Z,11.20
2019-03-25T17:30:59.125Z,11.10
2019-03-25T17:33:27.512Z,11.00
2019-03-25T17:35:55.938Z,11.00
2019-03-25T17:38:24.329Z,10.80
2019-03-25T17:40:52.780Z,10.70
2019-03-25T17:43:21.168Z,10.70
2019-03-25T17:45:49.552Z,10.50
2019-03-25T17:48:18.106Z,10.60
2019-03-25T17:50:46.734Z,10.60
2019-03-25T17:53:15.133Z,10.60
2019-03-25T17:55:43.525Z,10.30
2019-03-25T17:58:11.907Z,10.20
2019-03-25T18:00:52.324Z,10.20
2019-03-25T18:03:20.714Z,10.10
2019-03-25T18:05:49.100Z,9.90
2019-03-25T18:08:17.486Z,9.90
2019-03-25T18:10:45.869Z,9.70
2019-03-25T18:13:22.207Z,9.50
2019-03-25T18:15:44.353Z,9.50
2019-03-25T18:18:12.728Z,9.50
2019-03-25T18:20:41.124Z,9.50
2019-03-25T18:23:09.496Z,9.60
2019-03-25T18:25:37.894Z,9.60
2019-03-25T18:28:06.265Z,9.40
2019-03-25T18:30:35.112Z,9.40
2019-03-25T18:33:03.507Z,9.30
2019-03-25T18:35:31.881Z,9.20
2019-03-25T18:40:26.761Z,9.10
2019-03-25T18:42:55.159Z,9.10
2019-03-25T18:45:23.536Z,9.20
2019-03-25T18:47:53.340Z,9.20
2019-03-25T18:50:21.913Z,9.10
2019-03-25T18:52:50.305Z,9.00
2019-03-25T18:55:18.831Z,8.90
2019-03-25T18:57:47.265Z,8.90
2019-03-25T19:00:34.990Z,8.70
2019-03-25T19:03:03.913Z,8.60
2019-03-25T19:05:32.307Z,8.60
2019-03-25T19:08:03.533Z,8.50
2019-03-25T19:10:32.244Z,8.50
2019-03-25T19:13:00.720Z,8.50
2019-03-25T19:15:29.088Z,8.40
2019-03-25T19:17:57.473Z,8.50
2019-03-25T19:20:25.882Z,8.50
2019-03-25T19:22:54.259Z,8.50
2019-03-25T19:25:22.666Z,8.30
2019-03-25T19:27:51.286Z,8.30
2019-03-25T19:30:19.743Z,8.20
2019-03-25T19:32:48.166Z,8.20
2019-03-25T19:35:16.970Z,8.30
2019-03-25T19:37:45.437Z,8.20
2019-03-25T19:40:14.165Z,8.30
2019-03-25T19:42:42.633Z,8.30
2019-03-25T19:45:11.445Z,8.30
2019-03-25T19:47:39.868Z,8.30
2019-03-25T19:50:08.708Z,8.30
2019-03-25T19:52:37.205Z,8.30
2019-03-25T19:55:05.722Z,8.10
2019-03-25T19:57:34.135Z,8.10
2019-03-25T20:00:02.530Z,7.90
2019-03-25T20:02:30.957Z,7.80
2019-03-25T20:04:59.404Z,7.80
2019-03-25T20:07:27.792Z,7.70
2019-03-25T20:09:56.233Z,7.70
2019-03-25T20:12:24.674Z,7.50
2019-03-25T20:14:53.046Z,7.50
2019-03-25T20:17:21.467Z,7.50
2019-03-25T20:19:49.986Z,7.30
2019-03-25T20:22:18.450Z,7.30
2019-03-25T20:24:46.864Z,7.20
2019-03-25T20:27:15.408Z,7.20
2019-03-25T20:29:43.971Z,7.30
2019-03-25T20:32:12.347Z,7.30
2019-03-25T20:34:40.846Z,7.20
2019-03-25T20:37:09.298Z,7.20
2019-03-25T20:39:37.709Z,7.10
2019-03-25T20:42:06.176Z,7.10
2019-03-25T20:44:34.604Z,6.90
2019-03-25T20:47:03.053Z,6.90
2019-03-25T20:49:31.486Z,7.00
2019-03-25T20:52:00.026Z,7.00
2019-03-25T20:54:28.601Z,6.90
2019-03-25T20:56:57.278Z,6.90
2019-03-25T20:59:25.772Z,6.90
2019-03-25T21:01:54.140Z,6.90
2019-03-25T21:04:22.625Z,6.90
2019-03-25T21:06:51.000Z,6.90
2019-03-25T21:09:19.447Z,6.90
2019-03-25T21:11:47.861Z,6.80
2019-03-25T21:14:16.252Z,6.80
2019-03-25T21:16:44.784Z,6.80
2019-03-25T21:19:13.190Z,6.80
2019-03-25T21:21:41.728Z,6.70
2019-03-25T21:24:10.205Z,6.70
2019-03-25T21:26:38.580Z,6.70
2019-03-25T21:29:06.999Z,6.70
2019-03-25T21:31:35.507Z,6.70
2019-03-25T21:34:03.980Z,6.60
2019-03-25T21:36:32.462Z,6.70
2019-03-25T21:39:00.886Z,6.60
2019-03-25T21:41:29.290Z,6.60
2019-03-25T21:43:57.970Z,6.60
2019-03-25T21:46:26.352Z,6.50
2019-03-25T21:48:54.946Z,6.50
2019-03-25T21:51:23.454Z,6.40
2019-03-25T21:53:53.110Z,6.40
2019-03-25T21:56:21.876Z,6.40
2019-03-25T21:58:50.343Z,6.40
2019-03-25T22:01:18.693Z,6.40
2019-03-25T22:03:47.080Z,6.40
2019-03-25T22:06:15.464Z,6.30
2019-03-25T22:08:43.896Z,6.30
2019-03-25T22:11:12.284Z,6.30
2019-03-25T22:13:40.772Z,6.30
2019-03-25T22:16:09.181Z,6.30
2019-03-25T22:18:37.616Z,6.30
2019-03-25T22:21:05.982Z,6.30
2019-03-25T22:23:34.373Z,6.30
2019-03-25T22:26:02.756Z,6.30
2019-03-25T22:28:31.153Z,6.30
2019-03-25T22:30:59.612Z,6.30
2019-03-25T22:33:28.005Z,6.20
2019-03-25T22:35:56.392Z,6.20
2019-03-25T22:38:24.775Z,6.20
2019-03-25T22:40:53.163Z,6.20
2019-03-25T22:43:21.597Z,6.20
2019-03-25T22:45:49.982Z,6.10
2019-03-25T22:48:18.374Z,6.20
2019-03-25T22:50:46.749Z,6.10
2019-03-25T22:53:15.144Z,6.00
2019-03-25T22:55:43.764Z,6.00
2019-03-25T22:58:12.164Z,6.00
2019-03-25T23:00:44.931Z,5.90
2019-03-25T23:03:13.320Z,5.90
2019-03-25T23:05:41.693Z,5.90
2019-03-25T23:08:10.156Z,5.90
2019-03-25T23:10:38.541Z,5.90
2019-03-25T23:13:06.936Z,5.90
2019-03-25T23:15:35.308Z,5.90
2019-03-25T23:18:03.770Z,5.90
2019-03-25T23:20:32.157Z,5.80
2019-03-25T23:23:00.548Z,5.80
2019-03-25T23:25:28.928Z,5.80
2019-03-25T23:27:57.313Z,5.80
2019-03-25T23:30:25.691Z,5.70
2019-03-25T23:32:54.128Z,5.70
2019-03-25T23:35:22.504Z,5.70
2019-03-25T23:37:50.904Z,5.70
2019-03-25T23:40:19.296Z,5.70
2019-03-25T23:42:47.701Z,5.60
2019-03-25T23:45:16.089Z,5.60
2019-03-25T23:47:44.486Z,5.60
2019-03-25T23:50:12.943Z,5.60
2019-03-25T23:52:41.331Z,5.60
2019-03-25T23:55:09.716Z,5.50
2019-03-25T23:57:38.100Z,5.50
